Flight Track Log - Related Links

Times and Time Zones

All times are in EDT time to prevent confusion due to time zone crossing. See the EJA952 flight status page for this flight to view local times or setup timezone preferences in your user account.

Time Position Orientation Groundspeed Altitude Reporting Facility
EDT Latitude Longitude Course Direction KTS MPH feet Rate Location/Type
Sun 07:49:10 PM 40.0019 -82.9125 274° West 178 205 1,200  Level Indianapolis Center
Sun 07:49:53 PM 40.0047 -82.9603 274° West 210 242 3,500 3,657 Climbing Indianapolis Center
Sun 07:50:55 PM 40.0089 -83.0486 274° West 235 270 7,600 3,290 Climbing Indianapolis Center
Sun 07:51:57 PM 40.0131 -83.1536 273° West 282 325 10,300 2,829 Climbing Indianapolis Center
Sun 07:52:58 PM 40.0189 -83.2864 273° West 311 358 13,400 2,341 Climbing Indianapolis Center
Sun 07:54:00 PM 40.0203 -83.4131 271° West 350 403 15,100 1,452 Climbing Indianapolis Center
Sun 07:55:02 PM 40.0022 -83.5478 260° West 378 435 16,400 1,355 Climbing Indianapolis Center
Sun 07:56:04 PM 39.9833 -83.6903 260° West 400 460 17,900 1,645 Climbing Indianapolis Center
Sun 07:57:06 PM 39.9633 -83.8336 260° West 403 464 19,800 2,341 Climbing Indianapolis Center
Sun 07:58:07 PM 39.9417 -83.9936 260° West 382 440 22,700 2,634 Climbing Indianapolis Center
Sun 07:59:09 PM 39.9242 -84.1225 260° West 364 419 25,200 2,274 Climbing Indianapolis Center
Sun 08:00:11 PM 39.9061 -84.2481 259° West 353 406 27,400 1,951 Climbing Indianapolis Center
Sun 08:01:12 PM 39.8894 -84.3764 260° West 355 409 29,200 1,610 Climbing Indianapolis Center
Sun 08:02:14 PM 39.8700 -84.5067 259° West 365 420 30,700 1,500 Climbing Indianapolis Center
Sun 08:03:16 PM 39.8517 -84.6425 260° West 377 434 32,300 1,500 Climbing Indianapolis Center
Sun 08:04:18 PM 39.8314 -84.7808 259° West 385 443 33,800 1,161 Climbing Indianapolis Center
Sun 08:05:20 PM 39.8117 -84.9142 259° West 396 456 34,700 1,512 Climbing Indianapolis Center
Sun 08:06:21 PM 39.7864 -85.0886 259° West 409 471 36,900 1,707 Climbing Indianapolis Center
Sun 08:07:23 PM 39.7656 -85.2328 259° West 407 468 38,200 1,113 Climbing Indianapolis Center
Sun 08:08:25 PM 39.7436 -85.3808 259° West 417 480 39,200 878 Climbing Indianapolis Center
Sun 08:09:26 PM 39.7200 -85.5331 259° West 428 493 40,000 390 Climbing Indianapolis Center
Sun 08:10:28 PM 39.7006 -85.6914 261° West 443 510 40,000  Level Indianapolis Center
Sun 08:11:30 PM 39.6814 -85.8519 261° West 450 518 40,000  Level Indianapolis Center
Sun 08:12:32 PM 39.6617 -86.0106 261° West 445 512 40,000  Level Indianapolis Center
Sun 08:13:33 PM 39.6367 -86.1992 260° West 437 503 40,000  Level Indianapolis Center
Sun 08:14:35 PM 39.6172 -86.3600 261° West 440 506 40,000  Level Indianapolis Center
Sun 08:15:37 PM 39.5983 -86.5147 261° West 433 498 40,000  Level Indianapolis Center
Sun 08:16:39 PM 39.5786 -86.6681 261° West 430 495 40,000  Level Indianapolis Center
Sun 08:17:40 PM 39.5589 -86.8192 260° West 428 493 40,000  Level Indianapolis Center
Sun 08:18:42 PM 39.5397 -86.9714 261° West 429 494 40,000  Level Indianapolis Center
Sun 08:19:44 PM 39.5194 -87.1225 260° West 428 493 40,000  Level Indianapolis Center
Sun 08:20:46 PM 39.4989 -87.2742 260° West 429 494 40,000  Level Indianapolis Center
Sun 08:21:48 PM 39.4786 -87.4250 260° West 428 493 40,000  Level Indianapolis Center
Sun 08:22:49 PM 39.4533 -87.6064 260° West 428 493 40,000  Level Indianapolis Center
Sun 08:23:51 PM 39.4319 -87.7569 260° West 429 494 40,000  Level Indianapolis Center
Sun 08:24:53 PM 39.4108 -87.9078 260° West 427 491 40,000  Level Indianapolis Center
Sun 08:25:55 PM 39.3894 -88.0581 260° West 428 493 40,000  Level Indianapolis Center
Sun 08:26:56 PM 39.3681 -88.2097 260° West 430 495 40,000  Level Indianapolis Center
Sun 08:27:58 PM 39.3453 -88.3736 260° West 428 493 40,000  Level Indianapolis Center
Sun 08:28:52 PM 39.3272 -88.4953 259° West 428 493 40,000  Level Kansas City Center
Sun 08:29:54 PM 39.2994 -88.6772 259° West 431 496 40,000 242 Level Kansas City Center
Sun 08:30:56 PM 39.2781 -88.8314 260° West 434 499 40,500 629 Climbing Kansas City Center
Sun 08:31:58 PM 39.2550 -88.9881 259° West 442 509 41,300 774 Climbing Kansas City Center
Sun 08:33:00 PM 39.2314 -89.1442 259° West 445 512 42,100 774 Climbing Kansas City Center
Sun 08:34:02 PM 39.2064 -89.3006 258° West 446 513 42,900 435 Climbing Kansas City Center
Sun 08:35:04 PM 39.1825 -89.4578 259° West 448 516 43,000 48 Climbing Kansas City Center
Sun 08:36:06 PM 39.1264 -89.6383 248° West 454 522 43,000  Level Kansas City Center
Sun 08:37:08 PM 39.0608 -89.7750 238° Southwest 451 519 43,000  Level Kansas City Center
Sun 08:38:10 PM 38.9936 -89.9219 240° Southwest 447 514 43,000  Level Kansas City Center
Sun 08:39:12 PM 38.9344 -90.0439 238° Southwest 444 511 43,000  Level Kansas City Center
Sun 08:40:14 PM 38.8700 -90.1889 240° Southwest 443 510 43,000  Level Kansas City Center
Sun 08:41:16 PM 38.8086 -90.3264 240° Southwest 444 511 43,000  Level Kansas City Center
Sun 08:42:18 PM 38.7472 -90.4653 240° Southwest 445 512 43,000  Level Kansas City Center
Sun 08:43:20 PM 38.6658 -90.6272 237° Southwest 449 517 43,000  Level Kansas City Center
Sun 08:44:22 PM 38.6139 -90.7453 241° Southwest 447 514 43,000  Level Kansas City Center
Sun 08:45:24 PM 38.5553 -90.9203 247° West 439 505 43,000  Level Kansas City Center
Sun 08:46:25 PM 38.5144 -91.0678 251° West 440 506 43,000  Level Kansas City Center
Sun 08:47:27 PM 38.4725 -91.2175 250° West 446 513 43,000  Level Kansas City Center
Sun 08:48:29 PM 38.4519 -91.3733 260° West 439 505 43,000  Level Kansas City Center
Sun 08:49:31 PM 38.4414 -91.5267 265° West 447 514 43,000  Level Kansas City Center
Sun 08:50:33 PM 38.4242 -91.7144 263° West 445 512 43,000  Level Kansas City Center
Sun 08:51:35 PM 38.4092 -91.8711 263° West 444 511 43,000  Level Kansas City Center
Sun 08:52:37 PM 38.3961 -92.0272 264° West 444 511 43,000  Level Kansas City Center
Sun 08:53:38 PM 38.3803 -92.1833 263° West 446 513 43,000  Level Kansas City Center
Sun 08:54:40 PM 38.3656 -92.3394 263° West 447 514 43,000  Level Kansas City Center
Sun 08:55:42 PM 38.3522 -92.4958 264° West 447 514 43,000  Level Kansas City Center
Sun 08:56:44 PM 38.3333 -92.6828 263° West 446 513 43,000  Level Kansas City Center
Sun 08:57:46 PM 38.3169 -92.8375 262° West 445 512 43,000  Level Kansas City Center
Sun 08:58:47 PM 38.3014 -92.9956 263° West 448 516 43,000  Level Kansas City Center
Sun 08:59:49 PM 38.2847 -93.1528 262° West 450 518 43,000  Level Kansas City Center
Sun 09:00:51 PM 38.2672 -93.3119 262° West 453 521 43,000  Level Kansas City Center
Sun 09:01:53 PM 38.2503 -93.4700 262° West 453 521 43,000  Level Kansas City Center
Sun 09:02:54 PM 38.2317 -93.6586 263° West 450 518 43,000  Level Kansas City Center
Sun 09:03:56 PM 38.2139 -93.8164 262° West 450 518 43,000  Level Kansas City Center
Sun 09:04:58 PM 38.1978 -93.9733 263° West 449 517 43,000  Level Kansas City Center
Sun 09:06:00 PM 38.1803 -94.1331 262° West 447 514 43,000  Level Kansas City Center
Sun 09:07:01 PM 38.1639 -94.2819 262° West 445 512 43,000  Level Kansas City Center
Sun 09:08:03 PM 38.1439 -94.4556 262° West 443 510 43,000  Level Kansas City Center
Sun 09:09:05 PM 38.1272 -94.6019 262° West 439 505 43,000 -145 Level Kansas City Center
Sun 09:10:07 PM 38.1106 -94.7514 262° West 443 510 42,700 -919 Descending Kansas City Center
Sun 09:11:09 PM 38.0903 -94.9228 262° West 440 506 41,100 -1,512 Descending Kansas City Center
Sun 09:12:10 PM 38.0728 -95.0697 261° West 439 505 39,600 -1,512 Descending Kansas City Center
Sun 09:13:12 PM 38.0517 -95.2406 261° West 439 505 38,000 -1,500 Descending Kansas City Center
Sun 09:14:14 PM 38.0350 -95.3847 262° West 428 493 36,500 -1,561 Descending Kansas City Center
Sun 09:15:15 PM 38.0156 -95.5492 262° West 427 491 34,800 -1,512 Descending Kansas City Center
Sun 09:16:17 PM 37.9972 -95.6908 261° West 425 489 33,400 -1,403 Descending Kansas City Center
Sun 09:17:19 PM 37.9806 -95.8339 262° West 428 493 31,900 -2,049 Descending Kansas City Center
Sun 09:18:20 PM 37.9575 -96.0094 261° West 449 517 29,200 -2,439 Descending Kansas City Center
Sun 09:19:22 PM 37.9383 -96.1614 261° West 469 540 26,900 -2,341 Descending Kansas City Center
Sun 09:20:23 PM 37.9178 -96.3206 261° West 461 531 24,400 -2,585 Descending Kansas City Center
Sun 09:21:25 PM 37.8969 -96.4750 260° West 447 514 21,600 -3,176 Descending Kansas City Center
Sun 09:22:05 PM 37.8789 -96.6031 260° West 433 498 19,000 -3,386 Descending Kansas City Center
Sun 09:23:06 PM 37.8586 -96.7522 260° West 429 494 15,900 -3,130 Descending Kansas City Center
Sun 09:24:00 PM 37.8456 -96.8711 262° West 408 470 13,000 -3,214 Descending Kansas City Center
Sun 09:24:30 PM 37.8425 -96.9378 267° West 390 449 11,400 -2,149 Descending Kansas City Center
Sun 09:25:07 PM 37.8344 -97.0108 262° West 314 361 10,600 -1,670 Descending Kansas City Center
Sun 09:26:07 PM 37.8258 -97.1128 264° West 271 312 8,700 -1,884 Descending Kansas City Center
Sun 09:27:08 PM 37.8208 -97.2092 266° West 275 316 6,800 -1,869 Descending Kansas City Center
Sun 09:28:09 PM 37.8147 -97.2975 265° West 252 290 4,900 -1,795 Descending Kansas City Center
Sun 09:29:15 PM 37.7817 -97.3661 239° Southwest 204 235 3,000 -992 Descending Kansas City Center
Sun 09:30:16 PM 37.7369 -97.3836 197° South 153 176 2,800 -452 Descending Kansas City Center
Sun 09:31:41 PM 37.6861 -97.4064 200° South 155 178 1,900 -645 Descending Kansas City Center
Sun 09:32:17 PM 37.6644 -97.4161 200° South 138 159 1,500 -667 Descending Kansas City Center
Sun 09:34:00 PM 37.6499 -97.4331 142° Southeast  Level Estimated
Sun 09:41:00 PM 37.6499 -97.4331 142° Southeast  Level Estimated
Sun 09:42:00 PM 37.6499 -97.4331 142° Southeast  Level Estimated
Sun 09:43:00 PM 37.6499 -97.4331 142° Southeast  Level Estimated
Sun 09:44:00 PM 37.6499 -97.4331 142° Southeast  Level Estimated
Sun 09:45:00 PM 37.6499 -97.4331 142° Southeast  Level Estimated
Sun 09:46:00 PM 37.6499 -97.4331 142° Southeast  Level Estimated

Login

Don't have an account? Register now (free) for customized features, flight alerts, and more!